sensor_id;sensor_type;location;lat;lon;timestamp;pressure;altitude;pressure_sealevel;temperature;humidity
49759;BME280;35654;46.080;11.118;2023-03-11T00:00:53;97483.13;;;9.85;77.83
49759;BME280;35654;46.080;11.118;2023-03-11T00:03:20;97491.03;;;9.78;77.88
49759;BME280;35654;46.080;11.118;2023-03-11T00:05:52;97487.56;;;9.69;77.60
49759;BME280;35654;46.080;11.118;2023-03-11T00:08:20;97492.94;;;9.65;77.60
49759;BME280;35654;46.080;11.118;2023-03-11T00:10:49;97488.38;;;9.69;77.34
49759;BME280;35654;46.080;11.118;2023-03-11T00:13:17;97489.31;;;9.73;77.17
49759;BME280;35654;46.080;11.118;2023-03-11T00:15:45;97493.47;;;9.79;76.69
49759;BME280;35654;46.080;11.118;2023-03-11T00:18:12;97490.84;;;9.83;76.35
49759;BME280;35654;46.080;11.118;2023-03-11T00:20:41;97477.06;;;9.79;76.06
49759;BME280;35654;46.080;11.118;2023-03-11T00:23:09;97475.72;;;9.65;76.86
49759;BME280;35654;46.080;11.118;2023-03-11T00:25:37;97481.13;;;9.53;77.57
49759;BME280;35654;46.080;11.118;2023-03-11T00:28:04;97504.00;;;9.48;77.58
49759;BME280;35654;46.080;11.118;2023-03-11T00:30:32;97510.06;;;9.54;77.62
49759;BME280;35654;46.080;11.118;2023-03-11T00:32:59;97492.59;;;9.46;77.50
49759;BME280;35654;46.080;11.118;2023-03-11T00:35:27;97493.22;;;9.52;76.71
49759;BME280;35654;46.080;11.118;2023-03-11T00:37:55;97490.66;;;9.47;77.63
49759;BME280;35654;46.080;11.118;2023-03-11T00:40:22;97496.59;;;9.49;77.58
49759;BME280;35654;46.080;11.118;2023-03-11T00:42:50;97496.91;;;9.47;77.22
49759;BME280;35654;46.080;11.118;2023-03-11T00:45:16;97488.72;;;9.47;77.65
49759;BME280;35654;46.080;11.118;2023-03-11T00:47:43;97490.66;;;9.47;77.00
49759;BME280;35654;46.080;11.118;2023-03-11T00:50:13;97492.13;;;9.44;77.10
49759;BME280;35654;46.080;11.118;2023-03-11T00:52:40;97500.06;;;9.37;77.38
49759;BME280;35654;46.080;11.118;2023-03-11T00:55:07;97505.84;;;9.35;77.76
49759;BME280;35654;46.080;11.118;2023-03-11T00:57:32;97509.72;;;9.34;77.05
49759;BME280;35654;46.080;11.118;2023-03-11T00:59:59;97507.56;;;9.19;78.11
49759;BME280;35654;46.080;11.118;2023-03-11T01:02:25;97502.75;;;9.16;78.10
49759;BME280;35654;46.080;11.118;2023-03-11T01:04:55;97517.56;;;9.15;78.08
49759;BME280;35654;46.080;11.118;2023-03-11T01:07:21;97510.69;;;9.09;77.74
49759;BME280;35654;46.080;11.118;2023-03-11T01:09:48;97501.47;;;8.93;78.76
49759;BME280;35654;46.080;11.118;2023-03-11T01:12:14;97505.97;;;8.89;78.73
49759;BME280;35654;46.080;11.118;2023-03-11T01:14:41;97501.50;;;8.85;79.22
49759;BME280;35654;46.080;11.118;2023-03-11T01:17:08;97483.38;;;8.80;79.57
49759;BME280;35654;46.080;11.118;2023-03-11T01:19:35;97482.56;;;8.79;79.76
49759;BME280;35654;46.080;11.118;2023-03-11T01:22:01;97480.31;;;8.82;79.34
49759;BME280;35654;46.080;11.118;2023-03-11T01:24:28;97474.22;;;8.85;78.98
49759;BME280;35654;46.080;11.118;2023-03-11T01:26:54;97458.63;;;8.85;79.04
49759;BME280;35654;46.080;11.118;2023-03-11T01:29:21;97467.81;;;8.81;79.42
49759;BME280;35654;46.080;11.118;2023-03-11T01:31:48;97480.97;;;8.78;79.49
49759;BME280;35654;46.080;11.118;2023-03-11T01:34:14;97475.53;;;8.78;79.53
49759;BME280;35654;46.080;11.118;2023-03-11T01:36:41;97476.03;;;8.72;79.07
49759;BME280;35654;46.080;11.118;2023-03-11T01:39:07;97468.84;;;8.67;79.20
49759;BME280;35654;46.080;11.118;2023-03-11T01:41:34;97467.88;;;8.63;79.59
49759;BME280;35654;46.080;11.118;2023-03-11T01:44:01;97459.88;;;8.58;79.53
49759;BME280;35654;46.080;11.118;2023-03-11T01:49:14;97446.94;;;8.47;79.64
49759;BME280;35654;46.080;11.118;2023-03-11T01:51:41;97452.59;;;8.42;79.69
49759;BME280;35654;46.080;11.118;2023-03-11T01:54:12;97466.88;;;8.39;79.72
49759;BME280;35654;46.080;11.118;2023-03-11T01:56:40;97475.72;;;8.27;79.62
49759;BME280;35654;46.080;11.118;2023-03-11T01:59:07;97477.97;;;8.16;80.61
49759;BME280;35654;46.080;11.118;2023-03-11T02:01:37;97482.63;;;8.16;79.75
49759;BME280;35654;46.080;11.118;2023-03-11T02:04:07;97459.09;;;8.03;80.48
49759;BME280;35654;46.080;11.118;2023-03-11T02:06:33;97458.47;;;7.97;81.42
49759;BME280;35654;46.080;11.118;2023-03-11T02:09:00;97446.91;;;8.00;81.48
49759;BME280;35654;46.080;11.118;2023-03-11T02:11:27;97440.66;;;8.08;81.42
49759;BME280;35654;46.080;11.118;2023-03-11T02:13:57;97447.53;;;8.14;80.64
49759;BME280;35654;46.080;11.118;2023-03-11T02:16:26;97443.84;;;8.10;80.21
49759;BME280;35654;46.080;11.118;2023-03-11T02:18:53;97446.41;;;8.07;79.68
49759;BME280;35654;46.080;11.118;2023-03-11T02:21:22;97463.09;;;8.05;79.71
49759;BME280;35654;46.080;11.118;2023-03-11T02:29:14;97466.19;;;7.87;81.05
49759;BME280;35654;46.080;11.118;2023-03-11T02:31:41;97465.03;;;7.88;81.06
49759;BME280;35654;46.080;11.118;2023-03-11T02:34:10;97471.47;;;7.92;80.08
49759;BME280;35654;46.080;11.118;2023-03-11T02:36:41;97461.84;;;7.86;80.35
49759;BME280;35654;46.080;11.118;2023-03-11T02:39:08;97470.19;;;7.81;80.76
49759;BME280;35654;46.080;11.118;2023-03-11T02:41:36;97459.47;;;7.76;79.65
49759;BME280;35654;46.080;11.118;2023-03-11T02:44:04;97439.59;;;7.75;80.20
49759;BME280;35654;46.080;11.118;2023-03-11T02:46:33;97466.03;;;7.75;80.05
49759;BME280;35654;46.080;11.118;2023-03-11T02:49:00;97468.75;;;7.75;80.43
49759;BME280;35654;46.080;11.118;2023-03-11T02:51:27;97464.75;;;7.72;80.36
49759;BME280;35654;46.080;11.118;2023-03-11T02:53:55;97475.97;;;7.71;80.54
49759;BME280;35654;46.080;11.118;2023-03-11T02:56:21;97479.34;;;7.68;80.53
49759;BME280;35654;46.080;11.118;2023-03-11T02:58:48;97493.63;;;7.65;80.52
49759;BME280;35654;46.080;11.118;2023-03-11T03:01:15;97485.28;;;7.61;80.80
49759;BME280;35654;46.080;11.118;2023-03-11T03:03:41;97480.47;;;7.58;80.85
49759;BME280;35654;46.080;11.118;2023-03-11T03:06:08;97477.28;;;7.56;80.58
49759;BME280;35654;46.080;11.118;2023-03-11T03:08:35;97454.34;;;7.40;81.57
49759;BME280;35654;46.080;11.118;2023-03-11T03:11:02;97472.00;;;7.34;82.15
49759;BME280;35654;46.080;11.118;2023-03-11T03:13:28;97477.75;;;7.32;82.36
49759;BME280;35654;46.080;11.118;2023-03-11T03:15:56;97464.75;;;7.29;82.51
49759;BME280;35654;46.080;11.118;2023-03-11T03:18:22;97474.38;;;7.27;82.34
49759;BME280;35654;46.080;11.118;2023-03-11T03:20:49;97479.50;;;7.28;81.96
49759;BME280;35654;46.080;11.118;2023-03-11T03:23:16;97463.97;;;7.29;82.04
49759;BME280;35654;46.080;11.118;2023-03-11T03:25:43;97470.53;;;7.28;82.21
49759;BME280;35654;46.080;11.118;2023-03-11T03:28:10;97476.78;;;7.28;82.07
49759;BME280;35654;46.080;11.118;2023-03-11T03:30:37;97460.94;;;7.22;81.89
49759;BME280;35654;46.080;11.118;2023-03-11T03:33:04;97459.00;;;7.14;82.80
49759;BME280;35654;46.080;11.118;2023-03-11T03:35:32;97462.66;;;7.09;82.90
49759;BME280;35654;46.080;11.118;2023-03-11T03:37:59;97445.03;;;6.98;83.76
49759;BME280;35654;46.080;11.118;2023-03-11T03:40:26;97430.66;;;6.97;84.34
49759;BME280;35654;46.080;11.118;2023-03-11T03:42:52;97426.50;;;7.00;84.29
49759;BME280;35654;46.080;11.118;2023-03-11T03:45:19;97441.56;;;7.06;83.96
49759;BME280;35654;46.080;11.118;2023-03-11T03:47:45;97445.56;;;7.09;83.78
49759;BME280;35654;46.080;11.118;2023-03-11T03:50:11;97467.31;;;7.09;83.55
49759;BME280;35654;46.080;11.118;2023-03-11T03:52:38;97474.22;;;7.06;83.62
49759;BME280;35654;46.080;11.118;2023-03-11T03:55:05;97479.78;;;7.10;83.31
49759;BME280;35654;46.080;11.118;2023-03-11T03:57:30;97481.41;;;7.11;83.39
49759;BME280;35654;46.080;11.118;2023-03-11T03:59:57;97481.72;;;7.09;83.34
49759;BME280;35654;46.080;11.118;2023-03-11T04:02:24;97481.41;;;7.11;83.25
49759;BME280;35654;46.080;11.118;2023-03-11T04:04:50;97490.84;;;7.13;83.14
49759;BME280;35654;46.080;11.118;2023-03-11T04:07:17;97485.41;;;7.13;82.78
49759;BME280;35654;46.080;11.118;2023-03-11T04:09:43;97502.22;;;7.15;82.15
49759;BME280;35654;46.080;11.118;2023-03-11T04:12:13;97484.13;;;7.11;82.44
49759;BME280;35654;46.080;11.118;2023-03-11T04:14:40;97481.72;;;7.00;82.44
49759;BME280;35654;46.080;11.118;2023-03-11T04:17:08;97473.41;;;7.06;83.25
49759;BME280;35654;46.080;11.118;2023-03-11T04:19:35;97469.06;;;7.04;82.12
49759;BME280;35654;46.080;11.118;2023-03-11T04:22:02;97481.84;;;6.95;83.71
49759;BME280;35654;46.080;11.118;2023-03-11T04:24:28;97491.94;;;6.86;83.81
49759;BME280;35654;46.080;11.118;2023-03-11T04:26:55;97498.44;;;6.77;84.22
49759;BME280;35654;46.080;11.118;2023-03-11T04:29:22;97495.06;;;6.71;84.44
49759;BME280;35654;46.080;11.118;2023-03-11T04:31:49;97495.03;;;6.63;84.67
49759;BME280;35654;46.080;11.118;2023-03-11T04:34:15;97491.38;;;6.67;84.65
49759;BME280;35654;46.080;11.118;2023-03-11T04:36:42;97493.63;;;6.74;84.35
49759;BME280;35654;46.080;11.118;2023-03-11T04:39:09;97499.25;;;6.77;84.28
49759;BME280;35654;46.080;11.118;2023-03-11T04:41:35;97507.75;;;6.84;83.78
49759;BME280;35654;46.080;11.118;2023-03-11T04:44:02;97513.84;;;6.90;83.47
49759;BME280;35654;46.080;11.118;2023-03-11T04:46:28;97525.06;;;6.88;83.21
49759;BME280;35654;46.080;11.118;2023-03-11T04:48:54;97518.28;;;6.77;82.30
49759;BME280;35654;46.080;11.118;2023-03-11T04:51:21;97507.78;;;6.54;84.25
49759;BME280;35654;46.080;11.118;2023-03-11T04:53:47;97497.06;;;6.49;84.97
49759;BME280;35654;46.080;11.118;2023-03-11T04:56:12;97500.25;;;6.42;84.62
49759;BME280;35654;46.080;11.118;2023-03-11T04:58:39;97492.41;;;6.40;85.06
49759;BME280;35654;46.080;11.118;2023-03-11T05:01:04;97507.13;;;6.48;85.17
49759;BME280;35654;46.080;11.118;2023-03-11T05:03:31;97503.34;;;6.58;84.20
49759;BME280;35654;46.080;11.118;2023-03-11T05:05:57;97506.53;;;6.60;83.98
49759;BME280;35654;46.080;11.118;2023-03-11T05:08:25;97522.00;;;6.51;83.38
49759;BME280;35654;46.080;11.118;2023-03-11T05:10:52;97532.22;;;6.45;84.20
49759;BME280;35654;46.080;11.118;2023-03-11T05:13:19;97532.88;;;6.42;84.04
49759;BME280;35654;46.080;11.118;2023-03-11T05:15:46;97534.56;;;6.29;84.99
49759;BME280;35654;46.080;11.118;2023-03-11T05:18:12;97541.09;;;6.28;84.58
49759;BME280;35654;46.080;11.118;2023-03-11T05:20:38;97543.13;;;6.23;85.24
49759;BME280;35654;46.080;11.118;2023-03-11T05:23:05;97543.09;;;6.14;85.08
49759;BME280;35654;46.080;11.118;2023-03-11T05:25:31;97530.91;;;6.12;85.83
49759;BME280;35654;46.080;11.118;2023-03-11T05:27:58;97513.53;;;6.13;85.27
49759;BME280;35654;46.080;11.118;2023-03-11T05:30:25;97516.09;;;6.18;85.71
49759;BME280;35654;46.080;11.118;2023-03-11T05:32:51;97532.16;;;6.28;84.77
49759;BME280;35654;46.080;11.118;2023-03-11T05:35:18;97541.41;;;6.27;85.99
49759;BME280;35654;46.080;11.118;2023-03-11T05:37:45;97526.22;;;6.26;85.79
49759;BME280;35654;46.080;11.118;2023-03-11T05:40:15;97529.44;;;6.28;85.41
49759;BME280;35654;46.080;11.118;2023-03-11T05:42:41;97526.41;;;6.29;85.22
49759;BME280;35654;46.080;11.118;2023-03-11T05:45:08;97521.59;;;6.26;85.34
49759;BME280;35654;46.080;11.118;2023-03-11T05:47:35;97511.34;;;6.23;85.67
49759;BME280;35654;46.080;11.118;2023-03-11T05:50:02;97508.13;;;6.21;85.40
49759;BME280;35654;46.080;11.118;2023-03-11T05:52:29;97525.53;;;6.20;85.48
49759;BME280;35654;46.080;11.118;2023-03-11T05:54:58;97528.88;;;6.17;84.77
49759;BME280;35654;46.080;11.118;2023-03-11T05:57:25;97526.97;;;6.18;85.17
49759;BME280;35654;46.080;11.118;2023-03-11T05:59:51;97536.06;;;6.13;85.68
49759;BME280;35654;46.080;11.118;2023-03-11T06:02:17;97531.91;;;6.16;85.21
49759;BME280;35654;46.080;11.118;2023-03-11T06:04:46;97543.53;;;6.08;84.98
49759;BME280;35654;46.080;11.118;2023-03-11T06:07:13;97523.03;;;6.02;85.61
49759;BME280;35654;46.080;11.118;2023-03-11T06:09:41;97525.44;;;6.03;85.54
49759;BME280;35654;46.080;11.118;2023-03-11T06:12:08;97533.78;;;6.07;85.93
49759;BME280;35654;46.080;11.118;2023-03-11T06:14:35;97536.34;;;6.12;85.25
49759;BME280;35654;46.080;11.118;2023-03-11T06:17:03;97538.84;;;6.22;84.76
49759;BME280;35654;46.080;11.118;2023-03-11T06:19:30;97534.38;;;6.26;84.43
49759;BME280;35654;46.080;11.118;2023-03-11T06:21:56;97529.44;;;6.28;84.59
49759;BME280;35654;46.080;11.118;2023-03-11T06:24:23;97535.38;;;6.30;84.52
49759;BME280;35654;46.080;11.118;2023-03-11T06:26:53;97544.00;;;6.32;83.46
49759;BME280;35654;46.080;11.118;2023-03-11T06:29:19;97543.25;;;6.40;82.17
49759;BME280;35654;46.080;11.118;2023-03-11T06:31:49;97544.28;;;6.53;81.78
49759;BME280;35654;46.080;11.118;2023-03-11T06:34:15;97558.69;;;6.53;82.47
49759;BME280;35654;46.080;11.118;2023-03-11T06:36:42;97564.28;;;6.57;82.24
49759;BME280;35654;46.080;11.118;2023-03-11T06:39:10;97557.78;;;6.66;81.50
49759;BME280;35654;46.080;11.118;2023-03-11T06:41:37;97553.91;;;6.67;80.45
49759;BME280;35654;46.080;11.118;2023-03-11T06:44:04;97562.72;;;6.64;81.03
49759;BME280;35654;46.080;11.118;2023-03-11T06:46:30;97557.16;;;6.69;80.33
49759;BME280;35654;46.080;11.118;2023-03-11T06:48:56;97556.06;;;6.79;79.75
49759;BME280;35654;46.080;11.118;2023-03-11T06:51:23;97575.13;;;6.87;78.78
49759;BME280;35654;46.080;11.118;2023-03-11T06:53:50;97578.69;;;6.96;76.41
49759;BME280;35654;46.080;11.118;2023-03-11T06:56:18;97573.44;;;7.00;76.87
49759;BME280;35654;46.080;11.118;2023-03-11T06:58:45;97579.06;;;7.12;76.97
49759;BME280;35654;46.080;11.118;2023-03-11T07:01:21;97570.13;;;7.29;75.59
49759;BME280;35654;46.080;11.118;2023-03-11T07:03:48;97583.63;;;7.42;73.61
49759;BME280;35654;46.080;11.118;2023-03-11T07:06:25;97577.53;;;7.54;71.62
49759;BME280;35654;46.080;11.118;2023-03-11T07:08:51;97581.41;;;7.61;70.12
49759;BME280;35654;46.080;11.118;2023-03-11T07:11:19;97575.47;;;7.68;69.13
49759;BME280;35654;46.080;11.118;2023-03-11T07:13:46;97588.47;;;7.80;68.06
49759;BME280;35654;46.080;11.118;2023-03-11T07:16:15;97593.28;;;7.91;67.61
49759;BME280;35654;46.080;11.118;2023-03-11T07:18:43;97595.03;;;7.96;67.07
49759;BME280;35654;46.080;11.118;2023-03-11T07:21:12;97594.56;;;8.02;66.00
49759;BME280;35654;46.080;11.118;2023-03-11T07:23:39;97603.22;;;8.04;66.47
49759;BME280;35654;46.080;11.118;2023-03-11T07:26:09;97601.94;;;8.19;65.83
49759;BME280;35654;46.080;11.118;2023-03-11T07:28:35;97603.41;;;8.34;64.53
49759;BME280;35654;46.080;11.118;2023-03-11T07:31:06;97598.41;;;8.44;64.11
49759;BME280;35654;46.080;11.118;2023-03-11T07:33:32;97612.66;;;8.50;64.35
49759;BME280;35654;46.080;11.118;2023-03-11T07:35:59;97620.97;;;8.70;63.18
49759;BME280;35654;46.080;11.118;2023-03-11T07:38:29;97626.72;;;8.86;63.15
49759;BME280;35654;46.080;11.118;2023-03-11T07:40:59;97621.34;;;9.07;62.29
49759;BME280;35654;46.080;11.118;2023-03-11T07:43:24;97615.09;;;9.06;61.98
49759;BME280;35654;46.080;11.118;2023-03-11T07:45:51;97624.81;;;9.16;62.26
49759;BME280;35654;46.080;11.118;2023-03-11T07:48:17;97630.09;;;9.29;62.38
49759;BME280;35654;46.080;11.118;2023-03-11T07:50:44;97633.13;;;9.28;61.73
49759;BME280;35654;46.080;11.118;2023-03-11T07:53:09;97628.09;;;9.38;61.24
49759;BME280;35654;46.080;11.118;2023-03-11T07:55:34;97646.41;;;9.38;62.15
49759;BME280;35654;46.080;11.118;2023-03-11T07:57:59;97644.53;;;9.30;61.64
49759;BME280;35654;46.080;11.118;2023-03-11T08:00:25;97637.94;;;9.31;61.47
49759;BME280;35654;46.080;11.118;2023-03-11T08:02:50;97639.97;;;9.43;61.06
49759;BME280;35654;46.080;11.118;2023-03-11T08:05:15;97651.06;;;9.46;60.61
49759;BME280;35654;46.080;11.118;2023-03-11T08:07:43;97658.72;;;9.53;60.10
49759;BME280;35654;46.080;11.118;2023-03-11T08:10:09;97661.72;;;9.68;60.01
49759;BME280;35654;46.080;11.118;2023-03-11T08:12:36;97654.66;;;9.88;59.39
49759;BME280;35654;46.080;11.118;2023-03-11T08:15:03;97646.22;;;10.02;59.67
49759;BME280;35654;46.080;11.118;2023-03-11T08:17:31;97647.50;;;10.25;59.37
49759;BME280;35654;46.080;11.118;2023-03-11T08:19:56;97639.69;;;10.35;59.42
49759;BME280;35654;46.080;11.118;2023-03-11T08:22:23;97636.19;;;10.47;58.21
49759;BME280;35654;46.080;11.118;2023-03-11T08:24:52;97629.28;;;10.62;57.52
49759;BME280;35654;46.080;11.118;2023-03-11T08:27:18;97626.91;;;10.60;57.55
49759;BME280;35654;46.080;11.118;2023-03-11T08:29:44;97626.59;;;10.74;57.38
49759;BME280;35654;46.080;11.118;2023-03-11T08:32:09;97636.00;;;10.85;55.73
49759;BME280;35654;46.080;11.118;2023-03-11T08:34:34;97635.91;;;10.93;54.75
49759;BME280;35654;46.080;11.118;2023-03-11T08:37:00;97623.00;;;11.06;54.41
49759;BME280;35654;46.080;11.118;2023-03-11T08:39:25;97628.75;;;11.25;54.43
49759;BME280;35654;46.080;11.118;2023-03-11T08:41:50;97620.53;;;11.37;53.57
49759;BME280;35654;46.080;11.118;2023-03-11T08:44:16;97619.63;;;11.45;52.45
49759;BME280;35654;46.080;11.118;2023-03-11T08:46:41;97617.94;;;11.53;51.79
49759;BME280;35654;46.080;11.118;2023-03-11T08:49:06;97623.38;;;11.65;50.74
49759;BME280;35654;46.080;11.118;2023-03-11T08:51:32;97616.19;;;11.73;50.91
49759;BME280;35654;46.080;11.118;2023-03-11T08:53:58;97623.84;;;11.79;50.44
49759;BME280;35654;46.080;11.118;2023-03-11T08:56:24;97619.19;;;11.80;50.47
49759;BME280;35654;46.080;11.118;2023-03-11T08:58:49;97615.16;;;11.89;50.33
49759;BME280;35654;46.080;11.118;2023-03-11T09:01:15;97592.31;;;11.97;50.21
49759;BME280;35654;46.080;11.118;2023-03-11T09:03:41;97599.34;;;12.10;49.83
49759;BME280;35654;46.080;11.118;2023-03-11T09:06:07;97600.63;;;12.28;48.44
49759;BME280;35654;46.080;11.118;2023-03-11T09:08:33;97600.28;;;12.42;47.53
49759;BME280;35654;46.080;11.118;2023-03-11T09:10:59;97604.19;;;12.57;47.32
49759;BME280;35654;46.080;11.118;2023-03-11T09:13:25;97603.19;;;12.77;47.22
49759;BME280;35654;46.080;11.118;2023-03-11T09:15:52;97598.88;;;12.92;46.55
49759;BME280;35654;46.080;11.118;2023-03-11T09:18:18;97590.31;;;13.09;44.89
49759;BME280;35654;46.080;11.118;2023-03-11T09:20:44;97589.22;;;13.29;43.28
49759;BME280;35654;46.080;11.118;2023-03-11T09:23:09;97590.47;;;13.47;44.63
49759;BME280;35654;46.080;11.118;2023-03-11T09:25:35;97592.47;;;13.66;44.36
49759;BME280;35654;46.080;11.118;2023-03-11T09:28:00;97584.03;;;13.74;42.01
49759;BME280;35654;46.080;11.118;2023-03-11T09:30:27;97565.09;;;13.88;40.08
49759;BME280;35654;46.080;11.118;2023-03-11T09:32:52;97560.81;;;14.10;39.73
49759;BME280;35654;46.080;11.118;2023-03-11T09:35:19;97559.47;;;14.20;37.99
49759;BME280;35654;46.080;11.118;2023-03-11T09:37:44;97556.31;;;14.37;37.83
49759;BME280;35654;46.080;11.118;2023-03-11T09:40:11;97562.28;;;14.62;37.61
49759;BME280;35654;46.080;11.118;2023-03-11T09:43:24;97568.25;;;14.86;36.98
49759;BME280;35654;46.080;11.118;2023-03-11T09:45:28;97556.28;;;15.21;37.13
49759;BME280;35654;46.080;11.118;2023-03-11T09:50:58;97559.28;;;16.17;35.47
49759;BME280;35654;46.080;11.118;2023-03-11T09:55:48;97562.94;;;16.95;33.12
49759;BME280;35654;46.080;11.118;2023-03-11T10:00:42;97562.78;;;17.61;29.65
49759;BME280;35654;46.080;11.118;2023-03-11T10:03:12;97552.97;;;17.71;28.63
49759;BME280;35654;46.080;11.118;2023-03-11T10:05:38;97547.59;;;17.99;27.88
49759;BME280;35654;46.080;11.118;2023-03-11T10:11:10;97538.31;;;18.46;26.13
49759;BME280;35654;46.080;11.118;2023-03-11T10:13:43;97536.44;;;18.71;25.58
49759;BME280;35654;46.080;11.118;2023-03-11T10:27:15;97544.44;;;19.22;24.95
49759;BME280;35654;46.080;11.118;2023-03-11T10:29:51;97544.41;;;19.86;23.95
49759;BME280;35654;46.080;11.118;2023-03-11T10:35:22;97551.66;;;25.78;18.65
49759;BME280;35654;46.080;11.118;2023-03-11T10:37:59;97559.59;;;27.10;16.94
49759;BME280;35654;46.080;11.118;2023-03-11T10:40:35;97562.91;;;26.23;16.60
49759;BME280;35654;46.080;11.118;2023-03-11T10:43:09;97566.72;;;28.47;15.47
49759;BME280;35654;46.080;11.118;2023-03-11T10:45:38;97556.72;;;28.67;14.65
49759;BME280;35654;46.080;11.118;2023-03-11T10:48:13;97562.53;;;28.73;13.69
49759;BME280;35654;46.080;11.118;2023-03-11T10:51:00;97561.56;;;28.11;14.16
49759;BME280;35654;46.080;11.118;2023-03-11T10:53:27;97547.59;;;28.85;13.89
49759;BME280;35654;46.080;11.118;2023-03-11T10:55:54;97546.50;;;29.84;13.10
49759;BME280;35654;46.080;11.118;2023-03-11T10:58:22;97537.13;;;30.14;12.46
49759;BME280;35654;46.080;11.118;2023-03-11T11:03:34;97520.44;;;31.07;11.34
49759;BME280;35654;46.080;11.118;2023-03-11T11:06:01;97523.47;;;30.76;11.74
49759;BME280;35654;46.080;11.118;2023-03-11T11:08:27;97522.38;;;31.66;11.07
49759;BME280;35654;46.080;11.118;2023-03-11T11:10:58;97515.84;;;33.14;10.72
49759;BME280;35654;46.080;11.118;2023-03-11T11:13:27;97510.66;;;32.45;10.61
49759;BME280;35654;46.080;11.118;2023-03-11T11:16:05;97514.44;;;33.38;10.20
49759;BME280;35654;46.080;11.118;2023-03-11T11:18:49;97503.03;;;32.51;10.41
49759;BME280;35654;46.080;11.118;2023-03-11T11:21:33;97504.75;;;31.95;10.52
49759;BME280;35654;46.080;11.118;2023-03-11T11:27:03;97497.84;;;30.89;10.98
49759;BME280;35654;46.080;11.118;2023-03-11T11:29:30;97492.88;;;30.66;10.94
49759;BME280;35654;46.080;11.118;2023-03-11T11:32:20;97491.06;;;29.10;12.36
49759;BME280;35654;46.080;11.118;2023-03-11T11:35:03;97474.94;;;29.51;12.03
49759;BME280;35654;46.080;11.118;2023-03-11T11:37:34;97471.06;;;32.74;10.30
49759;BME280;35654;46.080;11.118;2023-03-11T11:42:47;97473.19;;;32.11;10.75
49759;BME280;35654;46.080;11.118;2023-03-11T11:45:25;97479.72;;;30.63;11.40
49759;BME280;35654;46.080;11.118;2023-03-11T11:47:53;97470.91;;;28.81;11.96
49759;BME280;35654;46.080;11.118;2023-03-11T11:50:25;97471.09;;;30.30;11.33
49759;BME280;35654;46.080;11.118;2023-03-11T11:52:55;97469.91;;;31.65;10.76
49759;BME280;35654;46.080;11.118;2023-03-11T11:55:25;97467.13;;;32.57;10.33
49759;BME280;35654;46.080;11.118;2023-03-11T11:57:52;97472.81;;;30.27;11.37
49759;BME280;35654;46.080;11.118;2023-03-11T12:00:18;97454.47;;;30.50;11.60
49759;BME280;35654;46.080;11.118;2023-03-11T12:05:29;97439.13;;;28.80;12.03
49759;BME280;35654;46.080;11.118;2023-03-11T12:10:31;97442.84;;;29.08;12.57
49759;BME280;35654;46.080;11.118;2023-03-11T12:18:27;97437.56;;;32.05;10.73
49759;BME280;35654;46.080;11.118;2023-03-11T12:20:54;97427.53;;;31.95;10.34
49759;BME280;35654;46.080;11.118;2023-03-11T12:31:02;97414.94;;;30.41;11.40
49759;BME280;35654;46.080;11.118;2023-03-11T12:36:17;97404.41;;;28.31;12.36
49759;BME280;35654;46.080;11.118;2023-03-11T12:38:46;97394.41;;;29.50;11.90
49759;BME280;35654;46.080;11.118;2023-03-11T12:46:16;97393.13;;;30.32;11.45
49759;BME280;35654;46.080;11.118;2023-03-11T12:51:59;97383.22;;;30.46;11.50
49759;BME280;35654;46.080;11.118;2023-03-11T12:53:57;97382.13;;;28.46;12.46
49759;BME280;35654;46.080;11.118;2023-03-11T12:59:08;97378.69;;;32.23;10.19
49759;BME280;35654;46.080;11.118;2023-03-11T13:04:38;97378.06;;;29.17;12.29
49759;BME280;35654;46.080;11.118;2023-03-11T13:10:04;97383.16;;;29.86;11.48
49759;BME280;35654;46.080;11.118;2023-03-11T13:12:48;97380.16;;;30.17;10.97
49759;BME280;35654;46.080;11.118;2023-03-11T13:20:40;97373.19;;;29.18;11.86
49759;BME280;35654;46.080;11.118;2023-03-11T13:33:44;97378.50;;;30.52;10.89
49759;BME280;35654;46.080;11.118;2023-03-11T13:41:42;97377.53;;;29.95;11.35
49759;BME280;35654;46.080;11.118;2023-03-11T13:44:30;97373.59;;;28.89;12.11
49759;BME280;35654;46.080;11.118;2023-03-11T13:46:56;97372.59;;;29.32;11.70
49759;BME280;35654;46.080;11.118;2023-03-11T13:49:31;97367.63;;;32.11;10.35
49759;BME280;35654;46.080;11.118;2023-03-11T13:51:58;97374.81;;;31.35;10.92
49759;BME280;35654;46.080;11.118;2023-03-11T13:54:29;97375.19;;;33.82;9.24
49759;BME280;35654;46.080;11.118;2023-03-11T13:56:57;97372.63;;;31.78;10.36
49759;BME280;35654;46.080;11.118;2023-03-11T14:02:33;97388.97;;;30.70;11.63
49759;BME280;35654;46.080;11.118;2023-03-11T14:04:34;97380.56;;;32.56;10.18
49759;BME280;35654;46.080;11.118;2023-03-11T14:07:10;97390.56;;;32.86;9.86
49759;BME280;35654;46.080;11.118;2023-03-11T14:09:36;97396.38;;;31.95;10.35
49759;BME280;35654;46.080;11.118;2023-03-11T14:12:04;97396.91;;;31.22;10.59
49759;BME280;35654;46.080;11.118;2023-03-11T14:16:59;97393.28;;;28.80;12.17
49759;BME280;35654;46.080;11.118;2023-03-11T14:19:25;97394.25;;;29.53;11.77
49759;BME280;35654;46.080;11.118;2023-03-11T14:21:52;97394.41;;;31.86;10.57
49759;BME280;35654;46.080;11.118;2023-03-11T14:24:22;97395.72;;;28.38;12.42
49759;BME280;35654;46.080;11.118;2023-03-11T14:26:49;97398.06;;;27.96;12.80
49759;BME280;35654;46.080;11.118;2023-03-11T14:29:19;97396.59;;;29.36;12.32
49759;BME280;35654;46.080;11.118;2023-03-11T14:31:47;97404.78;;;28.42;12.34
49759;BME280;35654;46.080;11.118;2023-03-11T14:34:14;97387.78;;;27.81;13.33
49759;BME280;35654;46.080;11.118;2023-03-11T14:39:24;97389.13;;;29.03;12.49
49759;BME280;35654;46.080;11.118;2023-03-11T14:41:50;97396.53;;;28.48;12.75
49759;BME280;35654;46.080;11.118;2023-03-11T14:44:19;97396.06;;;27.62;13.08
49759;BME280;35654;46.080;11.118;2023-03-11T14:46:46;97401.13;;;26.32;14.13
49759;BME280;35654;46.080;11.118;2023-03-11T14:49:18;97414.50;;;25.55;14.47